Tyonek, AK

3:55 PM AKST on February 09, 2016 (GMT -0900)
McGahan | | Change Station
CLOSE
Current Station
Personal Weather Station
Location: Nikiski, AK
Elevation: 159 ft
Nearby Weather Stations

Elev 159 ft 60.73 °N, 151.30 °W | Updated 5 seconds ago

Clear
Clear
33.2 °F
Feels Like 25 °F
N
10.4
Wind Variable Wind from NNE
Gusts 10.4 mph

Today
High -- | Low -- °F
--% Chance of Precip.
Yesterday
High -- | Low -- °F
Precip. -- in
Pressure 29.98 in
Visibility 10.0 miles
Clouds Clear
Windchill 25 °F
Dew Point 25 °F
Humidity 72%
Rainfall 0.00 in
Snow Depth Not available.
9:04 AM 5:38 PM
Waxing Crescent, 3% visible
METAR PAEN 100053Z 02015KT 10SM CLR 01/M05 A2997 RMK AO2 SLP150 T00061050
Pressure 29.98 in
Visibility 10.0 miles
Clouds Clear
Windchill 25 °F
Dew Point 25 °F
Humidity 72%
Rainfall 0.00 in
Snow Depth Not available.
9:04 AM 5:38 PM
Waxing Crescent, 3% visible
METAR PAEN 100053Z 02015KT 10SM CLR 01/M05 A2997 RMK AO2 SLP150 T00061050

10-Day Weather Forecast

Almanac

Astronomy

Feb. 09, 2016 Rise Set
Actual Time
Civil Twilight
Nautical Twilight
Astronomical Twilight
Moon
Length of Visible Light
Length of Day
Tomorrow will be .
, % of the Moon is Illuminated

Today's Extremes

State Highs State Lows

Community

WunderPhotos

Upload Photos

1,891,752 photos uploaded!

WunderBlog® & News

Nearby

Air Quality

  Air Quality AQ Index Pollutant
Not available.

Snow Depth

Station Depth Elevation

Earthquake Activity

City Distance Mag. Time & Date
Minimum magnitude displayed is 2.5.

Coastal Water Temperatures

Place Temperature

Stations

Nearby Weather Stations

Station Location Temp. Windchill Dew Point Humidity Wind Precip. Elev Updated Type
                   

Watches & Warnings

There are currently no watches in effect.